sensor_id;sensor_type;location;lat;lon;timestamp;pressure;altitude;pressure_sealevel;temperature;humidity
73501;BME280;61721;42.206;25.320;2023-06-22T00:00:48;99725.34;;;25.34;53.05
73501;BME280;61721;42.206;25.320;2023-06-22T00:03:25;99728.66;;;25.09;53.44
73501;BME280;61721;42.206;25.320;2023-06-22T00:06:03;99730.38;;;24.93;53.63
73501;BME280;61721;42.206;25.320;2023-06-22T00:08:40;99740.66;;;24.98;53.54
73501;BME280;61721;42.206;25.320;2023-06-22T00:11:16;99735.97;;;24.99;53.69
73501;BME280;61721;42.206;25.320;2023-06-22T00:13:52;99734.63;;;25.01;53.17
73501;BME280;61721;42.206;25.320;2023-06-22T00:16:28;99733.78;;;25.01;53.16
73501;BME280;61721;42.206;25.320;2023-06-22T00:19:05;99739.28;;;25.22;53.07
73501;BME280;61721;42.206;25.320;2023-06-22T00:21:47;99740.84;;;25.13;53.51
73501;BME280;61721;42.206;25.320;2023-06-22T00:24:25;99735.00;;;25.10;53.48
73501;BME280;61721;42.206;25.320;2023-06-22T00:27:01;99727.41;;;24.78;54.22
73501;BME280;61721;42.206;25.320;2023-06-22T00:29:38;99737.22;;;24.91;53.95
73501;BME280;61721;42.206;25.320;2023-06-22T00:32:14;99738.34;;;25.12;53.32
73501;BME280;61721;42.206;25.320;2023-06-22T00:34:51;99741.84;;;24.85;53.87
73501;BME280;61721;42.206;25.320;2023-06-22T00:37:30;99750.56;;;24.99;53.45
73501;BME280;61721;42.206;25.320;2023-06-22T00:40:07;99748.81;;;24.93;54.08
73501;BME280;61721;42.206;25.320;2023-06-22T00:42:44;99742.91;;;24.84;54.04
73501;BME280;61721;42.206;25.320;2023-06-22T00:45:20;99747.31;;;24.64;55.23
73501;BME280;61721;42.206;25.320;2023-06-22T00:47:58;99748.91;;;24.59;55.50
73501;BME280;61721;42.206;25.320;2023-06-22T00:50:34;99753.66;;;24.64;55.22
73501;BME280;61721;42.206;25.320;2023-06-22T00:53:13;99747.50;;;24.57;54.65
73501;BME280;61721;42.206;25.320;2023-06-22T00:55:50;99756.03;;;24.22;55.58
73501;BME280;61721;42.206;25.320;2023-06-22T00:58:26;99759.88;;;24.21;56.03
73501;BME280;61721;42.206;25.320;2023-06-22T01:01:01;99749.13;;;24.19;56.20
73501;BME280;61721;42.206;25.320;2023-06-22T01:03:38;99761.38;;;24.12;56.12
73501;BME280;61721;42.206;25.320;2023-06-22T01:06:19;99762.63;;;24.21;56.01
73501;BME280;61721;42.206;25.320;2023-06-22T01:09:09;99762.97;;;24.24;56.46
73501;BME280;61721;42.206;25.320;2023-06-22T01:11:54;99757.97;;;23.88;56.80
73501;BME280;61721;42.206;25.320;2023-06-22T01:14:37;99754.84;;;23.68;57.78
73501;BME280;61721;42.206;25.320;2023-06-22T01:17:24;99750.53;;;23.88;57.52
73501;BME280;61721;42.206;25.320;2023-06-22T01:20:04;99756.25;;;23.25;59.82
73501;BME280;61721;42.206;25.320;2023-06-22T01:22:55;99762.25;;;23.67;58.14
73501;BME280;61721;42.206;25.320;2023-06-22T01:25:45;99756.47;;;23.52;58.44
73501;BME280;61721;42.206;25.320;2023-06-22T01:28:46;99757.00;;;23.66;57.71
73501;BME280;61721;42.206;25.320;2023-06-22T01:31:28;99746.66;;;22.99;60.59
73501;BME280;61721;42.206;25.320;2023-06-22T01:34:05;99743.34;;;22.97;60.48
73501;BME280;61721;42.206;25.320;2023-06-22T01:36:43;99740.88;;;23.12;60.25
73501;BME280;61721;42.206;25.320;2023-06-22T01:39:21;99750.50;;;22.75;61.01
73501;BME280;61721;42.206;25.320;2023-06-22T01:41:58;99739.66;;;22.68;61.38
73501;BME280;61721;42.206;25.320;2023-06-22T01:44:38;99753.50;;;23.25;59.60
73501;BME280;61721;42.206;25.320;2023-06-22T01:47:14;99750.28;;;23.28;59.70
73501;BME280;61721;42.206;25.320;2023-06-22T01:49:49;99750.72;;;23.37;58.94
73501;BME280;61721;42.206;25.320;2023-06-22T01:52:26;99750.94;;;23.35;59.26
73501;BME280;61721;42.206;25.320;2023-06-22T01:55:02;99741.13;;;23.39;58.59
73501;BME280;61721;42.206;25.320;2023-06-22T01:57:40;99741.94;;;23.23;58.92
73501;BME280;61721;42.206;25.320;2023-06-22T02:00:21;99733.59;;;23.18;58.96
73501;BME280;61721;42.206;25.320;2023-06-22T02:03:02;99740.75;;;23.19;58.14
73501;BME280;61721;42.206;25.320;2023-06-22T02:05:45;99753.25;;;23.26;58.02
73501;BME280;61721;42.206;25.320;2023-06-22T02:08:27;99755.06;;;23.21;58.06
73501;BME280;61721;42.206;25.320;2023-06-22T02:11:06;99758.59;;;23.05;58.60
73501;BME280;61721;42.206;25.320;2023-06-22T02:13:44;99775.03;;;23.16;58.76
73501;BME280;61721;42.206;25.320;2023-06-22T02:16:24;99758.50;;;22.99;58.78
73501;BME280;61721;42.206;25.320;2023-06-22T02:19:08;99772.66;;;23.08;58.63
73501;BME280;61721;42.206;25.320;2023-06-22T02:21:43;99773.72;;;23.19;58.69
73501;BME280;61721;42.206;25.320;2023-06-22T02:24:19;99766.41;;;22.84;59.33
73501;BME280;61721;42.206;25.320;2023-06-22T02:26:56;99770.16;;;23.07;58.25
73501;BME280;61721;42.206;25.320;2023-06-22T02:29:33;99765.56;;;22.84;59.43
73501;BME280;61721;42.206;25.320;2023-06-22T02:32:12;99773.91;;;22.89;59.32
73501;BME280;61721;42.206;25.320;2023-06-22T02:34:49;99774.75;;;22.78;59.40
73501;BME280;61721;42.206;25.320;2023-06-22T02:37:24;99781.31;;;22.77;58.78
73501;BME280;61721;42.206;25.320;2023-06-22T02:40:02;99779.19;;;22.55;59.27
73501;BME280;61721;42.206;25.320;2023-06-22T02:42:41;99787.53;;;22.60;59.63
73501;BME280;61721;42.206;25.320;2023-06-22T02:45:17;99785.25;;;22.69;59.48
73501;BME280;61721;42.206;25.320;2023-06-22T02:47:55;99776.78;;;22.71;59.19
73501;BME280;61721;42.206;25.320;2023-06-22T02:50:32;99781.34;;;22.53;59.75
73501;BME280;61721;42.206;25.320;2023-06-22T02:53:08;99784.06;;;22.53;59.61
73501;BME280;61721;42.206;25.320;2023-06-22T02:55:44;99792.19;;;22.48;59.71
73501;BME280;61721;42.206;25.320;2023-06-22T02:58:19;99795.53;;;22.62;59.14
73501;BME280;61721;42.206;25.320;2023-06-22T03:00:56;99799.34;;;22.61;59.22
73501;BME280;61721;42.206;25.320;2023-06-22T03:03:39;99799.81;;;22.46;60.08
73501;BME280;61721;42.206;25.320;2023-06-22T03:06:16;99795.78;;;22.49;59.91
73501;BME280;61721;42.206;25.320;2023-06-22T03:08:59;99801.25;;;22.49;59.20
73501;BME280;61721;42.206;25.320;2023-06-22T03:11:36;99804.13;;;22.54;59.70
73501;BME280;61721;42.206;25.320;2023-06-22T03:14:12;99784.44;;;22.57;59.20
73501;BME280;61721;42.206;25.320;2023-06-22T03:16:55;99787.28;;;22.62;59.01
73501;BME280;61721;42.206;25.320;2023-06-22T03:19:37;99791.00;;;22.79;59.07
73501;BME280;61721;42.206;25.320;2023-06-22T03:22:14;99794.09;;;22.59;59.55
73501;BME280;61721;42.206;25.320;2023-06-22T03:24:50;99800.91;;;22.57;59.28
73501;BME280;61721;42.206;25.320;2023-06-22T03:27:26;99802.91;;;22.73;59.52
73501;BME280;61721;42.206;25.320;2023-06-22T03:30:03;99801.84;;;22.86;58.67
73501;BME280;61721;42.206;25.320;2023-06-22T03:32:39;99799.34;;;22.73;59.30
73501;BME280;61721;42.206;25.320;2023-06-22T03:35:18;99804.00;;;22.72;59.01
73501;BME280;61721;42.206;25.320;2023-06-22T03:37:54;99808.91;;;22.82;59.20
73501;BME280;61721;42.206;25.320;2023-06-22T03:40:30;99805.91;;;22.72;59.81
73501;BME280;61721;42.206;25.320;2023-06-22T03:43:06;99800.66;;;22.82;59.22
73501;BME280;61721;42.206;25.320;2023-06-22T03:45:42;99797.19;;;22.75;59.20
73501;BME280;61721;42.206;25.320;2023-06-22T03:48:18;99798.16;;;22.92;59.19
73501;BME280;61721;42.206;25.320;2023-06-22T03:50:56;99786.44;;;22.96;58.77
73501;BME280;61721;42.206;25.320;2023-06-22T03:53:32;99798.47;;;23.07;58.42
73501;BME280;61721;42.206;25.320;2023-06-22T03:56:07;99794.03;;;23.18;58.37
73501;BME280;61721;42.206;25.320;2023-06-22T03:58:44;99796.50;;;23.31;58.13
73501;BME280;61721;42.206;25.320;2023-06-22T04:01:19;99795.41;;;23.32;57.90
73501;BME280;61721;42.206;25.320;2023-06-22T04:03:55;99789.09;;;23.60;57.75
73501;BME280;61721;42.206;25.320;2023-06-22T04:06:33;99792.28;;;23.40;58.19
73501;BME280;61721;42.206;25.320;2023-06-22T04:09:09;99795.50;;;23.37;58.79
73501;BME280;61721;42.206;25.320;2023-06-22T04:11:48;99798.91;;;23.56;58.01
73501;BME280;61721;42.206;25.320;2023-06-22T04:14:24;99795.28;;;23.84;57.59
73501;BME280;61721;42.206;25.320;2023-06-22T04:17:01;99795.88;;;23.86;57.13
73501;BME280;61721;42.206;25.320;2023-06-22T04:19:46;99793.97;;;24.03;56.56
73501;BME280;61721;42.206;25.320;2023-06-22T04:22:25;99799.97;;;24.17;56.82
73501;BME280;61721;42.206;25.320;2023-06-22T04:25:01;99803.88;;;23.87;57.49
73501;BME280;61721;42.206;25.320;2023-06-22T04:27:38;99804.84;;;23.53;58.91
73501;BME280;61721;42.206;25.320;2023-06-22T04:30:14;99810.34;;;23.64;58.85
73501;BME280;61721;42.206;25.320;2023-06-22T04:32:51;99811.41;;;24.09;57.21
73501;BME280;61721;42.206;25.320;2023-06-22T04:35:31;99805.31;;;24.23;56.78
73501;BME280;61721;42.206;25.320;2023-06-22T04:38:11;99807.22;;;24.06;55.85
73501;BME280;61721;42.206;25.320;2023-06-22T04:40:47;99816.28;;;24.35;55.67
73501;BME280;61721;42.206;25.320;2023-06-22T04:43:23;99814.09;;;23.75;56.44
73501;BME280;61721;42.206;25.320;2023-06-22T04:46:02;99820.63;;;23.86;55.99
73501;BME280;61721;42.206;25.320;2023-06-22T04:48:38;99828.78;;;24.43;55.08
73501;BME280;61721;42.206;25.320;2023-06-22T04:51:14;99832.00;;;24.23;56.79
73501;BME280;61721;42.206;25.320;2023-06-22T04:53:57;99829.41;;;24.00;57.94
73501;BME280;61721;42.206;25.320;2023-06-22T04:56:33;99824.69;;;24.62;56.20
73501;BME280;61721;42.206;25.320;2023-06-22T04:59:09;99826.94;;;24.48;56.70
73501;BME280;61721;42.206;25.320;2023-06-22T05:01:45;99826.53;;;24.40;57.55
73501;BME280;61721;42.206;25.320;2023-06-22T05:04:23;99826.28;;;24.41;56.62
73501;BME280;61721;42.206;25.320;2023-06-22T05:07:00;99820.38;;;24.33;57.65
73501;BME280;61721;42.206;25.320;2023-06-22T05:09:38;99824.66;;;24.12;56.93
73501;BME280;61721;42.206;25.320;2023-06-22T05:12:14;99829.59;;;24.10;56.63
73501;BME280;61721;42.206;25.320;2023-06-22T05:14:49;99820.75;;;24.24;55.73
73501;BME280;61721;42.206;25.320;2023-06-22T05:17:32;99826.56;;;23.94;56.61
73501;BME280;61721;42.206;25.320;2023-06-22T05:20:10;99816.88;;;24.37;55.95
73501;BME280;61721;42.206;25.320;2023-06-22T05:22:46;99823.78;;;24.40;55.81
73501;BME280;61721;42.206;25.320;2023-06-22T05:25:24;99823.13;;;24.33;55.65
73501;BME280;61721;42.206;25.320;2023-06-22T05:28:02;99815.75;;;24.55;55.08
73501;BME280;61721;42.206;25.320;2023-06-22T05:30:43;99825.28;;;24.47;55.13
73501;BME280;61721;42.206;25.320;2023-06-22T05:33:19;99818.94;;;24.47;55.64
73501;BME280;61721;42.206;25.320;2023-06-22T05:35:55;99816.31;;;24.23;55.23
73501;BME280;61721;42.206;25.320;2023-06-22T05:38:31;99809.91;;;24.68;53.79
73501;BME280;61721;42.206;25.320;2023-06-22T05:41:09;99814.41;;;24.74;53.49
73501;BME280;61721;42.206;25.320;2023-06-22T05:43:46;99813.09;;;24.60;54.13
73501;BME280;61721;42.206;25.320;2023-06-22T05:46:23;99810.78;;;24.90;53.41
73501;BME280;61721;42.206;25.320;2023-06-22T05:48:59;99816.78;;;24.87;54.01
73501;BME280;61721;42.206;25.320;2023-06-22T05:51:35;99809.78;;;25.40;52.28
73501;BME280;61721;42.206;25.320;2023-06-22T05:54:10;99811.53;;;24.86;53.17
73501;BME280;61721;42.206;25.320;2023-06-22T05:56:51;99818.44;;;25.27;53.09
73501;BME280;61721;42.206;25.320;2023-06-22T05:59:27;99811.00;;;25.06;53.31
73501;BME280;61721;42.206;25.320;2023-06-22T06:02:04;99806.63;;;25.53;51.96
73501;BME280;61721;42.206;25.320;2023-06-22T06:04:40;99807.81;;;25.84;51.96
73501;BME280;61721;42.206;25.320;2023-06-22T06:07:18;99813.31;;;26.16;50.85
73501;BME280;61721;42.206;25.320;2023-06-22T06:09:54;99809.88;;;26.04;51.00
73501;BME280;61721;42.206;25.320;2023-06-22T06:12:33;99804.88;;;25.96;51.39
73501;BME280;61721;42.206;25.320;2023-06-22T06:15:10;99812.53;;;25.89;51.15
73501;BME280;61721;42.206;25.320;2023-06-22T06:17:47;99809.78;;;25.89;51.22
73501;BME280;61721;42.206;25.320;2023-06-22T06:20:25;99812.69;;;26.09;51.16
73501;BME280;61721;42.206;25.320;2023-06-22T06:23:03;99823.94;;;25.98;51.32
73501;BME280;61721;42.206;25.320;2023-06-22T06:25:39;99819.00;;;26.05;50.47
73501;BME280;61721;42.206;25.320;2023-06-22T06:28:18;99821.59;;;26.16;50.43
73501;BME280;61721;42.206;25.320;2023-06-22T06:30:54;99817.44;;;25.82;51.30
73501;BME280;61721;42.206;25.320;2023-06-22T06:33:30;99817.41;;;26.41;49.84
73501;BME280;61721;42.206;25.320;2023-06-22T06:36:06;99809.81;;;26.26;49.70
73501;BME280;61721;42.206;25.320;2023-06-22T06:38:43;99803.16;;;26.22;50.33
73501;BME280;61721;42.206;25.320;2023-06-22T06:41:19;99811.53;;;26.32;49.97
73501;BME280;61721;42.206;25.320;2023-06-22T06:43:59;99809.81;;;27.00;49.06
73501;BME280;61721;42.206;25.320;2023-06-22T06:46:35;99816.81;;;27.23;47.83
73501;BME280;61721;42.206;25.320;2023-06-22T06:49:11;99814.88;;;26.76;49.21
73501;BME280;61721;42.206;25.320;2023-06-22T06:51:47;99809.91;;;26.73;48.65
73501;BME280;61721;42.206;25.320;2023-06-22T06:54:29;99816.03;;;26.80;48.10
73501;BME280;61721;42.206;25.320;2023-06-22T06:57:05;99819.06;;;26.84;47.70
73501;BME280;61721;42.206;25.320;2023-06-22T06:59:46;99831.50;;;27.29;48.51
73501;BME280;61721;42.206;25.320;2023-06-22T07:02:22;99825.84;;;27.61;47.39
73501;BME280;61721;42.206;25.320;2023-06-22T07:05:00;99824.66;;;27.46;46.97
73501;BME280;61721;42.206;25.320;2023-06-22T07:07:37;99824.09;;;27.49;46.49
73501;BME280;61721;42.206;25.320;2023-06-22T07:10:13;99810.81;;;27.46;46.79
73501;BME280;61721;42.206;25.320;2023-06-22T07:12:50;99808.75;;;27.94;46.26
73501;BME280;61721;42.206;25.320;2023-06-22T07:15:31;99811.84;;;28.23;45.16
73501;BME280;61721;42.206;25.320;2023-06-22T07:18:07;99812.66;;;28.49;44.82
73501;BME280;61721;42.206;25.320;2023-06-22T07:20:43;99813.19;;;28.21;45.34
73501;BME280;61721;42.206;25.320;2023-06-22T07:23:21;99816.50;;;28.12;45.17
73501;BME280;61721;42.206;25.320;2023-06-22T07:25:57;99812.38;;;28.40;43.85
73501;BME280;61721;42.206;25.320;2023-06-22T07:28:34;99816.78;;;28.62;43.44
73501;BME280;61721;42.206;25.320;2023-06-22T07:31:15;99812.88;;;28.68;43.79
73501;BME280;61721;42.206;25.320;2023-06-22T07:33:52;99816.75;;;28.87;43.25
73501;BME280;61721;42.206;25.320;2023-06-22T07:36:28;99819.78;;;28.75;43.29
73501;BME280;61721;42.206;25.320;2023-06-22T07:39:04;99813.69;;;28.78;43.56
73501;BME280;61721;42.206;25.320;2023-06-22T07:41:42;99818.97;;;28.75;44.22
73501;BME280;61721;42.206;25.320;2023-06-22T07:44:19;99817.00;;;29.01;43.74
73501;BME280;61721;42.206;25.320;2023-06-22T07:46:58;99817.91;;;29.51;42.66
73501;BME280;61721;42.206;25.320;2023-06-22T07:49:34;99815.59;;;29.03;42.71
73501;BME280;61721;42.206;25.320;2023-06-22T07:52:10;99820.34;;;28.93;43.26
73501;BME280;61721;42.206;25.320;2023-06-22T07:54:46;99812.81;;;29.08;42.99
73501;BME280;61721;42.206;25.320;2023-06-22T07:57:25;99816.56;;;29.43;42.43
73501;BME280;61721;42.206;25.320;2023-06-22T08:00:07;99816.19;;;29.65;41.90
73501;BME280;61721;42.206;25.320;2023-06-22T08:02:50;99818.63;;;29.12;42.49
73501;BME280;61721;42.206;25.320;2023-06-22T08:05:26;99820.81;;;29.15;42.37
73501;BME280;61721;42.206;25.320;2023-06-22T08:08:02;99812.31;;;29.61;41.63
73501;BME280;61721;42.206;25.320;2023-06-22T08:10:38;99820.41;;;29.52;42.46
73501;BME280;61721;42.206;25.320;2023-06-22T08:13:14;99822.88;;;29.59;41.79
73501;BME280;61721;42.206;25.320;2023-06-22T08:15:52;99810.13;;;29.53;42.00
73501;BME280;61721;42.206;25.320;2023-06-22T08:18:31;99805.03;;;29.70;41.38
73501;BME280;61721;42.206;25.320;2023-06-22T08:21:07;99819.28;;;29.53;41.22
73501;BME280;61721;42.206;25.320;2023-06-22T08:23:43;99811.47;;;29.60;40.22
73501;BME280;61721;42.206;25.320;2023-06-22T08:26:19;99812.28;;;29.66;41.14
73501;BME280;61721;42.206;25.320;2023-06-22T08:28:55;99811.88;;;30.27;40.06
73501;BME280;61721;42.206;25.320;2023-06-22T08:31:32;99810.72;;;30.33;40.78
73501;BME280;61721;42.206;25.320;2023-06-22T08:34:12;99814.41;;;30.23;40.36
73501;BME280;61721;42.206;25.320;2023-06-22T08:36:48;99806.06;;;30.23;40.47
73501;BME280;61721;42.206;25.320;2023-06-22T08:39:25;99808.03;;;30.23;40.29
73501;BME280;61721;42.206;25.320;2023-06-22T08:42:03;99803.56;;;30.85;39.61
73501;BME280;61721;42.206;25.320;2023-06-22T08:44:39;99806.94;;;31.06;39.49
73501;BME280;61721;42.206;25.320;2023-06-22T08:47:15;99812.84;;;31.23;40.15
73501;BME280;61721;42.206;25.320;2023-06-22T08:49:54;99802.97;;;31.12;40.01
73501;BME280;61721;42.206;25.320;2023-06-22T08:52:30;99796.41;;;31.26;39.26
73501;BME280;61721;42.206;25.320;2023-06-22T08:55:07;99804.56;;;30.94;39.74
73501;BME280;61721;42.206;25.320;2023-06-22T08:57:43;99800.78;;;30.85;39.72
73501;BME280;61721;42.206;25.320;2023-06-22T09:00:20;99795.75;;;30.87;39.66
73501;BME280;61721;42.206;25.320;2023-06-22T09:02:56;99797.59;;;30.73;40.21
73501;BME280;61721;42.206;25.320;2023-06-22T09:05:37;99794.84;;;30.67;39.49
73501;BME280;61721;42.206;25.320;2023-06-22T09:08:13;99798.78;;;30.90;39.66
73501;BME280;61721;42.206;25.320;2023-06-22T09:10:49;99791.16;;;31.44;38.32
73501;BME280;61721;42.206;25.320;2023-06-22T09:13:25;99785.53;;;31.06;38.19
73501;BME280;61721;42.206;25.320;2023-06-22T09:16:03;99784.03;;;31.56;38.38
73501;BME280;61721;42.206;25.320;2023-06-22T09:18:40;99795.16;;;31.56;38.20
73501;BME280;61721;42.206;25.320;2023-06-22T09:21:27;99790.09;;;31.40;37.69
73501;BME280;61721;42.206;25.320;2023-06-22T09:24:04;99792.47;;;31.89;36.72
73501;BME280;61721;42.206;25.320;2023-06-22T09:26:40;99780.94;;;31.95;37.17
73501;BME280;61721;42.206;25.320;2023-06-22T09:29:17;99786.91;;;31.70;37.17
73501;BME280;61721;42.206;25.320;2023-06-22T09:31:53;99777.97;;;31.73;37.55
73501;BME280;61721;42.206;25.320;2023-06-22T09:34:30;99772.50;;;31.63;36.60
73501;BME280;61721;42.206;25.320;2023-06-22T09:37:09;99777.47;;;31.66;36.59
73501;BME280;61721;42.206;25.320;2023-06-22T09:39:45;99769.66;;;31.68;36.10
73501;BME280;61721;42.206;25.320;2023-06-22T09:42:21;99772.38;;;31.92;36.37
73501;BME280;61721;42.206;25.320;2023-06-22T09:44:57;99770.28;;;31.84;36.15
73501;BME280;61721;42.206;25.320;2023-06-22T09:47:33;99775.38;;;31.58;36.41
73501;BME280;61721;42.206;25.320;2023-06-22T09:50:10;99784.16;;;31.65;36.83
73501;BME280;61721;42.206;25.320;2023-06-22T09:52:49;99788.00;;;31.50;38.89
73501;BME280;61721;42.206;25.320;2023-06-22T09:55:27;99789.44;;;31.48;38.43
73501;BME280;61721;42.206;25.320;2023-06-22T09:58:04;99785.69;;;31.57;37.59
73501;BME280;61721;42.206;25.320;2023-06-22T10:00:41;99790.69;;;31.79;37.42
73501;BME280;61721;42.206;25.320;2023-06-22T10:03:18;99792.69;;;32.11;36.69
73501;BME280;61721;42.206;25.320;2023-06-22T10:05:55;99777.69;;;32.07;36.75
73501;BME280;61721;42.206;25.320;2023-06-22T10:08:34;99778.84;;;31.87;37.02
73501;BME280;61721;42.206;25.320;2023-06-22T10:11:11;99772.06;;;31.93;36.89
73501;BME280;61721;42.206;25.320;2023-06-22T10:13:59;99789.31;;;31.77;37.15
73501;BME280;61721;42.206;25.320;2023-06-22T10:16:36;99780.09;;;31.57;37.27
73501;BME280;61721;42.206;25.320;2023-06-22T10:19:18;99776.25;;;32.10;37.08
73501;BME280;61721;42.206;25.320;2023-06-22T10:21:54;99772.28;;;31.97;36.58
73501;BME280;61721;42.206;25.320;2023-06-22T10:24:33;99782.31;;;31.79;36.86
73501;BME280;61721;42.206;25.320;2023-06-22T10:27:11;99763.47;;;32.09;37.21
73501;BME280;61721;42.206;25.320;2023-06-22T10:29:47;99766.03;;;31.68;36.75
73501;BME280;61721;42.206;25.320;2023-06-22T10:32:23;99765.13;;;32.10;36.06
73501;BME280;61721;42.206;25.320;2023-06-22T10:35:00;99762.44;;;32.37;36.59
73501;BME280;61721;42.206;25.320;2023-06-22T10:37:36;99766.56;;;32.40;36.49
73501;BME280;61721;42.206;25.320;2023-06-22T10:40:17;99759.47;;;32.47;36.23
73501;BME280;61721;42.206;25.320;2023-06-22T10:42:53;99756.97;;;32.32;35.38
73501;BME280;61721;42.206;25.320;2023-06-22T10:45:30;99753.47;;;32.40;35.68
73501;BME280;61721;42.206;25.320;2023-06-22T10:48:07;99743.44;;;32.07;35.94
73501;BME280;61721;42.206;25.320;2023-06-22T10:50:43;99750.50;;;32.18;35.10
73501;BME280;61721;42.206;25.320;2023-06-22T10:53:20;99753.44;;;32.26;35.51
73501;BME280;61721;42.206;25.320;2023-06-22T10:55:59;99752.38;;;32.69;34.56
73501;BME280;61721;42.206;25.320;2023-06-22T10:58:37;99756.13;;;32.78;35.51
73501;BME280;61721;42.206;25.320;2023-06-22T11:01:20;99738.34;;;33.15;34.73
73501;BME280;61721;42.206;25.320;2023-06-22T11:03:56;99736.59;;;33.05;35.01
73501;BME280;61721;42.206;25.320;2023-06-22T11:06:34;99736.06;;;32.76;34.39
73501;BME280;61721;42.206;25.320;2023-06-22T11:09:10;99736.88;;;33.17;35.15
73501;BME280;61721;42.206;25.320;2023-06-22T11:11:53;99734.38;;;32.47;35.84
73501;BME280;61721;42.206;25.320;2023-06-22T11:14:30;99733.72;;;32.23;35.67
73501;BME280;61721;42.206;25.320;2023-06-22T11:17:13;99729.31;;;32.36;35.94
73501;BME280;61721;42.206;25.320;2023-06-22T11:19:50;99725.47;;;31.99;36.28
73501;BME280;61721;42.206;25.320;2023-06-22T11:22:26;99732.19;;;32.12;36.42
73501;BME280;61721;42.206;25.320;2023-06-22T11:25:06;99726.72;;;32.07;35.82
73501;BME280;61721;42.206;25.320;2023-06-22T11:27:46;99725.50;;;31.80;36.83
73501;BME280;61721;42.206;25.320;2023-06-22T11:30:22;99731.78;;;31.67;36.71
73501;BME280;61721;42.206;25.320;2023-06-22T11:32:59;99734.13;;;31.98;36.51
73501;BME280;61721;42.206;25.320;2023-06-22T11:35:34;99733.41;;;31.73;36.44
73501;BME280;61721;42.206;25.320;2023-06-22T11:38:10;99727.88;;;31.87;36.18
73501;BME280;61721;42.206;25.320;2023-06-22T11:40:46;99729.31;;;31.84;35.57
73501;BME280;61721;42.206;25.320;2023-06-22T11:43:25;99732.38;;;32.02;35.80
73501;BME280;61721;42.206;25.320;2023-06-22T11:46:02;99732.81;;;32.09;35.03
73501;BME280;61721;42.206;25.320;2023-06-22T11:48:39;99728.81;;;32.75;33.63
73501;BME280;61721;42.206;25.320;2023-06-22T11:51:15;99728.00;;;32.74;34.35
73501;BME280;61721;42.206;25.320;2023-06-22T11:53:51;99742.97;;;32.65;34.24
73501;BME280;61721;42.206;25.320;2023-06-22T11:56:27;99729.63;;;32.48;35.11
73501;BME280;61721;42.206;25.320;2023-06-22T11:59:07;99736.56;;;32.50;34.56
73501;BME280;61721;42.206;25.320;2023-06-22T12:01:44;99725.09;;;32.19;35.10
73501;BME280;61721;42.206;25.320;2023-06-22T12:04:28;99721.03;;;32.31;33.71
73501;BME280;61721;42.206;25.320;2023-06-22T12:07:05;99720.47;;;32.88;33.67
73501;BME280;61721;42.206;25.320;2023-06-22T12:09:41;99726.44;;;32.54;34.61
73501;BME280;61721;42.206;25.320;2023-06-22T12:12:19;99717.44;;;32.11;35.01
73501;BME280;61721;42.206;25.320;2023-06-22T12:14:58;99715.28;;;32.68;34.16
73501;BME280;61721;42.206;25.320;2023-06-22T12:17:36;99713.75;;;32.16;34.92
73501;BME280;61721;42.206;25.320;2023-06-22T12:20:20;99709.41;;;32.10;35.79
73501;BME280;61721;42.206;25.320;2023-06-22T12:22:57;99711.03;;;32.11;34.53
73501;BME280;61721;42.206;25.320;2023-06-22T12:25:34;99703.59;;;32.06;35.13
73501;BME280;61721;42.206;25.320;2023-06-22T12:28:12;99699.69;;;32.07;34.53
73501;BME280;61721;42.206;25.320;2023-06-22T12:30:51;99699.28;;;32.14;34.51
73501;BME280;61721;42.206;25.320;2023-06-22T12:33:28;99696.59;;;32.09;34.67
73501;BME280;61721;42.206;25.320;2023-06-22T12:36:07;99695.44;;;32.42;35.35
73501;BME280;61721;42.206;25.320;2023-06-22T12:38:44;99689.69;;;32.66;35.24
73501;BME280;61721;42.206;25.320;2023-06-22T12:41:20;99683.88;;;32.49;34.56
73501;BME280;61721;42.206;25.320;2023-06-22T12:43:56;99682.47;;;32.19;34.10
73501;BME280;61721;42.206;25.320;2023-06-22T12:46:35;99688.31;;;32.50;33.53
73501;BME280;61721;42.206;25.320;2023-06-22T12:49:11;99681.66;;;32.18;34.09
73501;BME280;61721;42.206;25.320;2023-06-22T12:51:49;99684.19;;;32.47;33.91
73501;BME280;61721;42.206;25.320;2023-06-22T12:54:28;99679.34;;;32.53;33.77
73501;BME280;61721;42.206;25.320;2023-06-22T12:57:09;99678.72;;;32.56;34.06
73501;BME280;61721;42.206;25.320;2023-06-22T12:59:47;99674.50;;;32.72;33.47
73501;BME280;61721;42.206;25.320;2023-06-22T13:02:25;99676.34;;;32.49;33.71
73501;BME280;61721;42.206;25.320;2023-06-22T13:05:04;99679.88;;;32.69;34.02
73501;BME280;61721;42.206;25.320;2023-06-22T13:07:40;99670.56;;;32.73;33.62
73501;BME280;61721;42.206;25.320;2023-06-22T13:10:17;99673.78;;;32.67;34.18
73501;BME280;61721;42.206;25.320;2023-06-22T13:12:53;99678.31;;;32.90;33.44
73501;BME280;61721;42.206;25.320;2023-06-22T13:15:34;99667.06;;;32.68;33.69
73501;BME280;61721;42.206;25.320;2023-06-22T13:18:29;99667.56;;;32.70;33.77
73501;BME280;61721;42.206;25.320;2023-06-22T13:21:06;99672.84;;;32.99;33.20
73501;BME280;61721;42.206;25.320;2023-06-22T13:23:42;99667.94;;;33.32;32.48
73501;BME280;61721;42.206;25.320;2023-06-22T13:26:21;99662.03;;;33.19;32.34
73501;BME280;61721;42.206;25.320;2023-06-22T13:29:09;99657.75;;;32.72;32.37
73501;BME280;61721;42.206;25.320;2023-06-22T13:31:51;99662.63;;;32.80;32.81
73501;BME280;61721;42.206;25.320;2023-06-22T13:34:32;99659.06;;;33.16;33.20
73501;BME280;61721;42.206;25.320;2023-06-22T13:37:09;99664.53;;;33.21;32.95
73501;BME280;61721;42.206;25.320;2023-06-22T13:39:45;99661.28;;;32.78;32.75
73501;BME280;61721;42.206;25.320;2023-06-22T13:42:21;99663.25;;;32.91;33.13
73501;BME280;61721;42.206;25.320;2023-06-22T13:44:57;99663.16;;;32.82;33.46